sensor_id;sensor_type;location;lat;lon;timestamp;temperature;humidity
22908;DHT22;11620;50.050;8.690;2023-04-01T00:00:34;8.10;99.90
22908;DHT22;11620;50.050;8.690;2023-04-01T00:03:21;8.10;99.90
22908;DHT22;11620;50.050;8.690;2023-04-01T00:06:13;8.10;99.90
22908;DHT22;11620;50.050;8.690;2023-04-01T00:09:00;8.10;99.90
22908;DHT22;11620;50.050;8.690;2023-04-01T00:11:46;8.10;99.90
22908;DHT22;11620;50.050;8.690;2023-04-01T00:14:32;8.10;99.90
22908;DHT22;11620;50.050;8.690;2023-04-01T00:17:19;8.10;99.90
22908;DHT22;11620;50.050;8.690;2023-04-01T00:20:06;8.00;99.90
22908;DHT22;11620;50.050;8.690;2023-04-01T00:22:53;8.00;99.90
22908;DHT22;11620;50.050;8.690;2023-04-01T00:25:40;8.00;99.90
22908;DHT22;11620;50.050;8.690;2023-04-01T00:28:27;8.00;99.90
22908;DHT22;11620;50.050;8.690;2023-04-01T00:31:14;8.00;99.90
22908;DHT22;11620;50.050;8.690;2023-04-01T00:34:00;7.90;99.90
22908;DHT22;11620;50.050;8.690;2023-04-01T00:36:47;8.00;99.90
22908;DHT22;11620;50.050;8.690;2023-04-01T00:39:34;7.90;99.90
22908;DHT22;11620;50.050;8.690;2023-04-01T00:42:20;7.90;99.90
22908;DHT22;11620;50.050;8.690;2023-04-01T00:45:28;8.00;99.90
22908;DHT22;11620;50.050;8.690;2023-04-01T00:48:19;7.90;99.90
22908;DHT22;11620;50.050;8.690;2023-04-01T00:51:18;7.90;99.90
22908;DHT22;11620;50.050;8.690;2023-04-01T00:54:06;8.00;99.90
22908;DHT22;11620;50.050;8.690;2023-04-01T00:56:59;7.90;99.90
22908;DHT22;11620;50.050;8.690;2023-04-01T00:59:48;7.90;99.90
22908;DHT22;11620;50.050;8.690;2023-04-01T01:02:35;7.90;99.90
22908;DHT22;11620;50.050;8.690;2023-04-01T01:05:36;7.90;99.90
22908;DHT22;11620;50.050;8.690;2023-04-01T01:08:29;7.90;99.90
22908;DHT22;11620;50.050;8.690;2023-04-01T01:11:32;8.00;99.90
22908;DHT22;11620;50.050;8.690;2023-04-01T01:27:09;7.90;99.90
22908;DHT22;11620;50.050;8.690;2023-04-01T01:36:07;7.90;99.90
22908;DHT22;11620;50.050;8.690;2023-04-01T01:38:57;7.90;99.90
22908;DHT22;11620;50.050;8.690;2023-04-01T01:41:45;7.90;99.90
22908;DHT22;11620;50.050;8.690;2023-04-01T01:44:36;7.90;99.90
22908;DHT22;11620;50.050;8.690;2023-04-01T01:47:25;7.90;99.90
22908;DHT22;11620;50.050;8.690;2023-04-01T01:50:12;7.90;99.90
22908;DHT22;11620;50.050;8.690;2023-04-01T01:53:05;7.90;99.90
22908;DHT22;11620;50.050;8.690;2023-04-01T01:55:51;7.90;99.90
22908;DHT22;11620;50.050;8.690;2023-04-01T01:59:03;7.90;99.90
22908;DHT22;11620;50.050;8.690;2023-04-01T02:01:51;7.80;99.90
22908;DHT22;11620;50.050;8.690;2023-04-01T02:04:41;7.80;99.90
22908;DHT22;11620;50.050;8.690;2023-04-01T02:07:31;7.90;99.90
22908;DHT22;11620;50.050;8.690;2023-04-01T02:10:20;8.00;99.90
22908;DHT22;11620;50.050;8.690;2023-04-01T02:13:18;7.90;99.90
22908;DHT22;11620;50.050;8.690;2023-04-01T02:16:16;8.00;99.90
22908;DHT22;11620;50.050;8.690;2023-04-01T02:19:07;7.90;99.90
22908;DHT22;11620;50.050;8.690;2023-04-01T02:21:57;7.80;99.90
22908;DHT22;11620;50.050;8.690;2023-04-01T02:24:45;7.90;99.90
22908;DHT22;11620;50.050;8.690;2023-04-01T02:27:32;7.80;99.90
22908;DHT22;11620;50.050;8.690;2023-04-01T02:30:19;7.90;99.90
22908;DHT22;11620;50.050;8.690;2023-04-01T02:33:05;7.80;99.90
22908;DHT22;11620;50.050;8.690;2023-04-01T02:35:52;7.80;99.90
22908;DHT22;11620;50.050;8.690;2023-04-01T02:38:39;7.80;99.90
22908;DHT22;11620;50.050;8.690;2023-04-01T02:41:25;7.70;99.90
22908;DHT22;11620;50.050;8.690;2023-04-01T02:44:13;7.70;99.90
22908;DHT22;11620;50.050;8.690;2023-04-01T02:47:00;7.70;99.90
22908;DHT22;11620;50.050;8.690;2023-04-01T02:49:47;7.80;99.90
22908;DHT22;11620;50.050;8.690;2023-04-01T02:52:33;7.80;99.90
22908;DHT22;11620;50.050;8.690;2023-04-01T02:55:19;7.80;99.90
22908;DHT22;11620;50.050;8.690;2023-04-01T02:58:06;7.70;99.90
22908;DHT22;11620;50.050;8.690;2023-04-01T03:00:52;7.70;99.90
22908;DHT22;11620;50.050;8.690;2023-04-01T03:03:38;7.70;99.90
22908;DHT22;11620;50.050;8.690;2023-04-01T03:06:25;7.80;99.90
22908;DHT22;11620;50.050;8.690;2023-04-01T03:09:11;7.70;99.90
22908;DHT22;11620;50.050;8.690;2023-04-01T03:11:57;7.70;99.90
22908;DHT22;11620;50.050;8.690;2023-04-01T03:14:44;7.80;99.90
22908;DHT22;11620;50.050;8.690;2023-04-01T03:17:30;7.80;99.90
22908;DHT22;11620;50.050;8.690;2023-04-01T03:20:16;7.80;99.90
22908;DHT22;11620;50.050;8.690;2023-04-01T03:23:03;7.80;99.90
22908;DHT22;11620;50.050;8.690;2023-04-01T03:25:49;7.70;99.90
22908;DHT22;11620;50.050;8.690;2023-04-01T03:28:36;7.70;99.90
22908;DHT22;11620;50.050;8.690;2023-04-01T03:31:22;7.60;99.90
22908;DHT22;11620;50.050;8.690;2023-04-01T03:34:09;7.60;99.90
22908;DHT22;11620;50.050;8.690;2023-04-01T03:36:55;7.60;99.90
22908;DHT22;11620;50.050;8.690;2023-04-01T03:39:42;7.60;99.90
22908;DHT22;11620;50.050;8.690;2023-04-01T03:42:30;7.70;99.90
22908;DHT22;11620;50.050;8.690;2023-04-01T03:45:17;7.70;99.90
22908;DHT22;11620;50.050;8.690;2023-04-01T03:48:04;7.70;99.90
22908;DHT22;11620;50.050;8.690;2023-04-01T03:50:50;7.70;99.90
22908;DHT22;11620;50.050;8.690;2023-04-01T03:53:36;7.70;99.90
22908;DHT22;11620;50.050;8.690;2023-04-01T03:56:23;7.60;99.90
22908;DHT22;11620;50.050;8.690;2023-04-01T03:59:09;7.70;99.90
22908;DHT22;11620;50.050;8.690;2023-04-01T04:01:56;7.60;99.90
22908;DHT22;11620;50.050;8.690;2023-04-01T04:04:42;7.50;99.90
22908;DHT22;11620;50.050;8.690;2023-04-01T04:07:28;7.60;99.90
22908;DHT22;11620;50.050;8.690;2023-04-01T04:10:15;7.60;99.90
22908;DHT22;11620;50.050;8.690;2023-04-01T04:13:01;7.60;99.90
22908;DHT22;11620;50.050;8.690;2023-04-01T04:15:47;7.60;99.90
22908;DHT22;11620;50.050;8.690;2023-04-01T04:18:34;7.60;99.90
22908;DHT22;11620;50.050;8.690;2023-04-01T04:21:20;7.60;99.90
22908;DHT22;11620;50.050;8.690;2023-04-01T04:24:07;7.70;99.90
22908;DHT22;11620;50.050;8.690;2023-04-01T04:26:53;7.70;99.90
22908;DHT22;11620;50.050;8.690;2023-04-01T04:29:40;7.60;99.90
22908;DHT22;11620;50.050;8.690;2023-04-01T04:32:26;7.60;99.90
22908;DHT22;11620;50.050;8.690;2023-04-01T04:35:12;7.60;99.90
22908;DHT22;11620;50.050;8.690;2023-04-01T04:37:59;7.60;99.90
22908;DHT22;11620;50.050;8.690;2023-04-01T04:40:45;7.70;99.90
22908;DHT22;11620;50.050;8.690;2023-04-01T04:43:31;7.70;99.90
22908;DHT22;11620;50.050;8.690;2023-04-01T04:46:18;7.60;99.90
22908;DHT22;11620;50.050;8.690;2023-04-01T04:49:05;7.60;99.90
22908;DHT22;11620;50.050;8.690;2023-04-01T04:51:52;7.60;99.90
22908;DHT22;11620;50.050;8.690;2023-04-01T04:54:38;7.60;99.90
22908;DHT22;11620;50.050;8.690;2023-04-01T04:57:24;7.70;99.90
22908;DHT22;11620;50.050;8.690;2023-04-01T05:00:11;7.70;99.90
22908;DHT22;11620;50.050;8.690;2023-04-01T05:02:58;7.60;99.90
22908;DHT22;11620;50.050;8.690;2023-04-01T05:05:52;7.60;99.90
22908;DHT22;11620;50.050;8.690;2023-04-01T05:08:39;7.70;99.90
22908;DHT22;11620;50.050;8.690;2023-04-01T05:11:26;7.70;99.90
22908;DHT22;11620;50.050;8.690;2023-04-01T05:14:15;7.70;99.90
22908;DHT22;11620;50.050;8.690;2023-04-01T05:17:01;7.70;99.90
22908;DHT22;11620;50.050;8.690;2023-04-01T05:19:47;7.70;99.90
22908;DHT22;11620;50.050;8.690;2023-04-01T05:22:34;7.70;99.90
22908;DHT22;11620;50.050;8.690;2023-04-01T05:25:20;7.60;99.90
22908;DHT22;11620;50.050;8.690;2023-04-01T05:28:06;7.60;99.90
22908;DHT22;11620;50.050;8.690;2023-04-01T05:30:53;7.60;99.90
22908;DHT22;11620;50.050;8.690;2023-04-01T05:33:39;7.70;99.90
22908;DHT22;11620;50.050;8.690;2023-04-01T05:36:25;7.60;99.90
22908;DHT22;11620;50.050;8.690;2023-04-01T05:39:12;7.70;99.90
22908;DHT22;11620;50.050;8.690;2023-04-01T05:41:58;7.70;99.90
22908;DHT22;11620;50.050;8.690;2023-04-01T05:44:44;7.70;99.90
22908;DHT22;11620;50.050;8.690;2023-04-01T05:47:31;7.60;99.90
22908;DHT22;11620;50.050;8.690;2023-04-01T05:50:17;7.50;99.90
22908;DHT22;11620;50.050;8.690;2023-04-01T05:53:04;7.40;99.90
22908;DHT22;11620;50.050;8.690;2023-04-01T05:55:50;7.30;99.90
22908;DHT22;11620;50.050;8.690;2023-04-01T05:58:37;7.30;99.90
22908;DHT22;11620;50.050;8.690;2023-04-01T06:01:24;7.30;99.90
22908;DHT22;11620;50.050;8.690;2023-04-01T06:04:14;7.30;99.90
22908;DHT22;11620;50.050;8.690;2023-04-01T06:07:01;7.20;99.90
22908;DHT22;11620;50.050;8.690;2023-04-01T06:09:51;7.20;99.90
22908;DHT22;11620;50.050;8.690;2023-04-01T06:13:39;7.10;99.90
22908;DHT22;11620;50.050;8.690;2023-04-01T06:31:46;7.10;99.90
22908;DHT22;11620;50.050;8.690;2023-04-01T06:44:35;7.20;99.90
22908;DHT22;11620;50.050;8.690;2023-04-01T06:56:54;7.30;99.90
22908;DHT22;11620;50.050;8.690;2023-04-01T06:59:43;7.30;99.90
22908;DHT22;11620;50.050;8.690;2023-04-01T07:02:47;7.30;99.90
22908;DHT22;11620;50.050;8.690;2023-04-01T07:05:39;7.30;99.90
22908;DHT22;11620;50.050;8.690;2023-04-01T07:08:28;7.30;99.90
22908;DHT22;11620;50.050;8.690;2023-04-01T07:11:29;7.20;99.90
22908;DHT22;11620;50.050;8.690;2023-04-01T07:14:32;7.20;99.90
22908;DHT22;11620;50.050;8.690;2023-04-01T07:17:23;7.10;99.90
22908;DHT22;11620;50.050;8.690;2023-04-01T07:20:38;7.20;99.90
22908;DHT22;11620;50.050;8.690;2023-04-01T07:23:31;7.20;99.90
22908;DHT22;11620;50.050;8.690;2023-04-01T07:26:23;7.20;99.90
22908;DHT22;11620;50.050;8.690;2023-04-01T07:29:13;7.10;99.90
22908;DHT22;11620;50.050;8.690;2023-04-01T07:32:39;7.10;99.90
22908;DHT22;11620;50.050;8.690;2023-04-01T07:35:46;7.10;99.90
22908;DHT22;11620;50.050;8.690;2023-04-01T07:38:59;7.20;99.90
22908;DHT22;11620;50.050;8.690;2023-04-01T07:51:07;7.50;99.90
22908;DHT22;11620;50.050;8.690;2023-04-01T07:54:04;7.50;99.90
22908;DHT22;11620;50.050;8.690;2023-04-01T08:06:50;7.60;99.90
22908;DHT22;11620;50.050;8.690;2023-04-01T08:18:59;7.70;99.90
22908;DHT22;11620;50.050;8.690;2023-04-01T08:21:51;7.70;99.90
22908;DHT22;11620;50.050;8.690;2023-04-01T08:24:46;7.70;99.90
22908;DHT22;11620;50.050;8.690;2023-04-01T08:27:51;7.80;99.90
22908;DHT22;11620;50.050;8.690;2023-04-01T08:30:55;7.70;99.90
22908;DHT22;11620;50.050;8.690;2023-04-01T08:33:44;7.70;99.90
22908;DHT22;11620;50.050;8.690;2023-04-01T08:36:35;7.70;99.90
22908;DHT22;11620;50.050;8.690;2023-04-01T08:45:41;7.70;99.90
22908;DHT22;11620;50.050;8.690;2023-04-01T08:57:34;7.60;99.90
22908;DHT22;11620;50.050;8.690;2023-04-01T09:28:20;7.70;99.90
22908;DHT22;11620;50.050;8.690;2023-04-01T09:31:32;7.80;99.90
22908;DHT22;11620;50.050;8.690;2023-04-01T09:34:53;7.70;99.90
22908;DHT22;11620;50.050;8.690;2023-04-01T09:37:47;7.70;99.90
22908;DHT22;11620;50.050;8.690;2023-04-01T09:53:14;8.00;99.90
22908;DHT22;11620;50.050;8.690;2023-04-01T10:20:39;8.40;99.90
22908;DHT22;11620;50.050;8.690;2023-04-01T10:43:34;8.20;99.90
22908;DHT22;11620;50.050;8.690;2023-04-01T10:48:50;8.40;99.90
22908;DHT22;11620;50.050;8.690;2023-04-01T10:57:31;8.80;99.90
22908;DHT22;11620;50.050;8.690;2023-04-01T11:06:39;8.70;99.90
22908;DHT22;11620;50.050;8.690;2023-04-01T11:12:25;8.50;99.90
22908;DHT22;11620;50.050;8.690;2023-04-01T11:14:55;8.60;99.90
22908;DHT22;11620;50.050;8.690;2023-04-01T11:34:39;9.20;99.90
22908;DHT22;11620;50.050;8.690;2023-04-01T11:37:51;9.30;99.90
22908;DHT22;11620;50.050;8.690;2023-04-01T11:40:06;9.20;99.90
22908;DHT22;11620;50.050;8.690;2023-04-01T11:46:10;9.30;99.90
22908;DHT22;11620;50.050;8.690;2023-04-01T11:57:43;9.50;99.90
22908;DHT22;11620;50.050;8.690;2023-04-01T12:00:52;9.60;99.90
22908;DHT22;11620;50.050;8.690;2023-04-01T12:07:06;9.20;99.90
22908;DHT22;11620;50.050;8.690;2023-04-01T12:10:21;9.20;99.90
22908;DHT22;11620;50.050;8.690;2023-04-01T12:16:24;9.40;99.90
22908;DHT22;11620;50.050;8.690;2023-04-01T12:19:28;9.50;99.90
22908;DHT22;11620;50.050;8.690;2023-04-01T12:38:41;9.20;99.90
22908;DHT22;11620;50.050;8.690;2023-04-01T12:41:45;9.20;99.90
22908;DHT22;11620;50.050;8.690;2023-04-01T12:44:50;9.10;99.90
22908;DHT22;11620;50.050;8.690;2023-04-01T12:48:00;9.00;99.90
22908;DHT22;11620;50.050;8.690;2023-04-01T12:51:29;9.00;99.90
22908;DHT22;11620;50.050;8.690;2023-04-01T13:01:27;9.10;99.90
22908;DHT22;11620;50.050;8.690;2023-04-01T13:10:20;9.10;99.90
22908;DHT22;11620;50.050;8.690;2023-04-01T13:13:53;9.20;99.90
22908;DHT22;11620;50.050;8.690;2023-04-01T13:20:20;9.20;99.90
22908;DHT22;11620;50.050;8.690;2023-04-01T13:23:34;9.20;99.90
22908;DHT22;11620;50.050;8.690;2023-04-01T13:41:55;9.30;99.90
22908;DHT22;11620;50.050;8.690;2023-04-01T14:00:31;9.40;99.90
22908;DHT22;11620;50.050;8.690;2023-04-01T14:07:04;9.30;99.90
22908;DHT22;11620;50.050;8.690;2023-04-01T14:16:51;9.00;99.90
22908;DHT22;11620;50.050;8.690;2023-04-01T14:20:02;9.10;99.90
22908;DHT22;11620;50.050;8.690;2023-04-01T14:23:21;9.20;99.90
22908;DHT22;11620;50.050;8.690;2023-04-01T14:32:24;9.00;99.90
22908;DHT22;11620;50.050;8.690;2023-04-01T14:41:17;8.90;99.90
22908;DHT22;11620;50.050;8.690;2023-04-01T14:50:46;8.90;99.90
22908;DHT22;11620;50.050;8.690;2023-04-01T14:53:38;8.90;99.90
22908;DHT22;11620;50.050;8.690;2023-04-01T14:56:44;8.80;99.90
22908;DHT22;11620;50.050;8.690;2023-04-01T14:59:31;8.90;99.90
22908;DHT22;11620;50.050;8.690;2023-04-01T15:08:27;9.00;99.90
22908;DHT22;11620;50.050;8.690;2023-04-01T15:11:31;9.00;99.90
22908;DHT22;11620;50.050;8.690;2023-04-01T15:14:50;9.00;99.90
22908;DHT22;11620;50.050;8.690;2023-04-01T15:18:21;8.90;99.90
22908;DHT22;11620;50.050;8.690;2023-04-01T15:42:10;9.00;99.90
22908;DHT22;11620;50.050;8.690;2023-04-01T15:57:35;9.20;99.90
22908;DHT22;11620;50.050;8.690;2023-04-01T16:03:30;9.10;99.90
22908;DHT22;11620;50.050;8.690;2023-04-01T16:12:36;9.10;99.90
22908;DHT22;11620;50.050;8.690;2023-04-01T16:15:44;9.10;99.90
22908;DHT22;11620;50.050;8.690;2023-04-01T16:27:36;9.20;99.90
22908;DHT22;11620;50.050;8.690;2023-04-01T16:30:32;9.20;99.90
22908;DHT22;11620;50.050;8.690;2023-04-01T16:36:26;9.40;99.90
22908;DHT22;11620;50.050;8.690;2023-04-01T16:49:33;9.20;99.90
22908;DHT22;11620;50.050;8.690;2023-04-01T16:52:48;9.10;99.90
22908;DHT22;11620;50.050;8.690;2023-04-01T16:58:59;8.80;99.90
22908;DHT22;11620;50.050;8.690;2023-04-01T17:07:42;8.60;99.90
22908;DHT22;11620;50.050;8.690;2023-04-01T17:37:44;8.70;99.90
22908;DHT22;11620;50.050;8.690;2023-04-01T17:40:41;8.60;99.90
22908;DHT22;11620;50.050;8.690;2023-04-01T17:43:45;8.50;99.90
22908;DHT22;11620;50.050;8.690;2023-04-01T18:02:41;8.40;99.90
22908;DHT22;11620;50.050;8.690;2023-04-01T18:12:06;8.40;99.90
22908;DHT22;11620;50.050;8.690;2023-04-01T18:15:39;8.40;99.90
22908;DHT22;11620;50.050;8.690;2023-04-01T18:19:05;8.40;99.90
22908;DHT22;11620;50.050;8.690;2023-04-01T18:25:12;8.50;99.90
22908;DHT22;11620;50.050;8.690;2023-04-01T18:31:22;8.50;99.90
22908;DHT22;11620;50.050;8.690;2023-04-01T18:34:14;8.40;99.90
22908;DHT22;11620;50.050;8.690;2023-04-01T18:40:28;8.30;99.90
22908;DHT22;11620;50.050;8.690;2023-04-01T18:47:16;8.30;99.90
22908;DHT22;11620;50.050;8.690;2023-04-01T18:56:06;8.30;99.90
22908;DHT22;11620;50.050;8.690;2023-04-01T18:59:15;8.20;99.90
22908;DHT22;11620;50.050;8.690;2023-04-01T19:05:19;8.00;99.90
22908;DHT22;11620;50.050;8.690;2023-04-01T19:11:37;8.30;99.90
22908;DHT22;11620;50.050;8.690;2023-04-01T19:29:56;7.90;99.90
22908;DHT22;11620;50.050;8.690;2023-04-01T19:36:24;7.90;99.90
22908;DHT22;11620;50.050;8.690;2023-04-01T19:39:48;7.90;99.90
22908;DHT22;11620;50.050;8.690;2023-04-01T19:42:55;8.00;99.90
22908;DHT22;11620;50.050;8.690;2023-04-01T19:45:49;7.90;99.90
22908;DHT22;11620;50.050;8.690;2023-04-01T19:51:56;8.00;99.90
22908;DHT22;11620;50.050;8.690;2023-04-01T19:57:59;8.20;99.90
22908;DHT22;11620;50.050;8.690;2023-04-01T20:00:51;8.00;99.90
22908;DHT22;11620;50.050;8.690;2023-04-01T20:06:38;8.00;99.90
22908;DHT22;11620;50.050;8.690;2023-04-01T20:12:58;8.00;99.90
22908;DHT22;11620;50.050;8.690;2023-04-01T20:16:03;8.00;99.90
22908;DHT22;11620;50.050;8.690;2023-04-01T20:18:56;8.00;99.90
22908;DHT22;11620;50.050;8.690;2023-04-01T20:21:46;8.00;99.90
22908;DHT22;11620;50.050;8.690;2023-04-01T20:24:37;8.00;99.90
22908;DHT22;11620;50.050;8.690;2023-04-01T20:27:32;8.00;99.90
22908;DHT22;11620;50.050;8.690;2023-04-01T20:30:38;8.00;99.90
22908;DHT22;11620;50.050;8.690;2023-04-01T20:37:06;7.90;99.90
22908;DHT22;11620;50.050;8.690;2023-04-01T20:46:48;7.70;99.90
22908;DHT22;11620;50.050;8.690;2023-04-01T20:53:15;7.70;99.90
22908;DHT22;11620;50.050;8.690;2023-04-01T20:56:14;7.70;99.90
22908;DHT22;11620;50.050;8.690;2023-04-01T21:08:51;7.80;99.90
22908;DHT22;11620;50.050;8.690;2023-04-01T21:11:52;7.80;99.90
22908;DHT22;11620;50.050;8.690;2023-04-01T21:18:32;7.80;99.90
22908;DHT22;11620;50.050;8.690;2023-04-01T21:21:11;7.80;99.90
22908;DHT22;11620;50.050;8.690;2023-04-01T21:27:34;7.90;99.90
22908;DHT22;11620;50.050;8.690;2023-04-01T21:30:44;7.90;99.90
22908;DHT22;11620;50.050;8.690;2023-04-01T21:33:44;7.80;99.90
22908;DHT22;11620;50.050;8.690;2023-04-01T21:40:35;7.80;99.90
22908;DHT22;11620;50.050;8.690;2023-04-01T22:05:49;7.90;99.90
22908;DHT22;11620;50.050;8.690;2023-04-01T22:08:45;7.90;99.90
22908;DHT22;11620;50.050;8.690;2023-04-01T22:17:52;7.90;99.90
22908;DHT22;11620;50.050;8.690;2023-04-01T22:20:48;8.00;99.90
22908;DHT22;11620;50.050;8.690;2023-04-01T22:29:31;7.90;99.90
22908;DHT22;11620;50.050;8.690;2023-04-01T22:32:42;8.00;99.90
22908;DHT22;11620;50.050;8.690;2023-04-01T22:35:51;8.00;99.90
22908;DHT22;11620;50.050;8.690;2023-04-01T22:42:00;8.00;99.90
22908;DHT22;11620;50.050;8.690;2023-04-01T22:44:52;8.00;99.90
22908;DHT22;11620;50.050;8.690;2023-04-01T23:02:35;7.60;99.90
22908;DHT22;11620;50.050;8.690;2023-04-01T23:05:23;7.60;99.90
22908;DHT22;11620;50.050;8.690;2023-04-01T23:11:53;7.60;99.90
22908;DHT22;11620;50.050;8.690;2023-04-01T23:14:43;7.60;99.90
22908;DHT22;11620;50.050;8.690;2023-04-01T23:29:24;7.90;99.90
22908;DHT22;11620;50.050;8.690;2023-04-01T23:32:17;7.80;99.90
22908;DHT22;11620;50.050;8.690;2023-04-01T23:35:15;7.80;99.90
22908;DHT22;11620;50.050;8.690;2023-04-01T23:38:02;7.80;99.90
22908;DHT22;11620;50.050;8.690;2023-04-01T23:40:51;7.80;99.90
22908;DHT22;11620;50.050;8.690;2023-04-01T23:43:40;7.70;99.90
22908;DHT22;11620;50.050;8.690;2023-04-01T23:46:30;7.70;99.90
22908;DHT22;11620;50.050;8.690;2023-04-01T23:49:21;7.80;99.90
22908;DHT22;11620;50.050;8.690;2023-04-01T23:55:33;7.70;99.90
22908;DHT22;11620;50.050;8.690;2023-04-01T23:58:38;7.80;99.90
